createdAt,value
2019-06-20T00:00:26.697Z,15.10
2019-06-20T00:02:53.875Z,15.10
2019-06-20T00:05:22.978Z,15.00
2019-06-20T00:07:52.924Z,15.00
2019-06-20T00:10:21.826Z,14.90
2019-06-20T00:12:59.990Z,14.80
2019-06-20T00:15:18.620Z,14.70
2019-06-20T00:17:45.797Z,14.70
2019-06-20T00:20:13.467Z,14.80
2019-06-20T00:22:41.423Z,14.80
2019-06-20T00:25:08.604Z,14.80
2019-06-20T00:27:41.316Z,14.70
2019-06-20T00:30:10.942Z,14.80
2019-06-20T00:32:43.879Z,14.80
2019-06-20T00:35:30.058Z,14.80
2019-06-20T00:37:59.398Z,14.80
2019-06-20T00:40:27.548Z,14.70
2019-06-20T00:42:54.839Z,14.70
2019-06-20T00:45:27.474Z,14.80
2019-06-20T00:47:55.857Z,14.60
2019-06-20T00:50:22.908Z,14.60
2019-06-20T00:52:55.171Z,14.70
2019-06-20T00:55:20.155Z,14.70
2019-06-20T00:57:47.768Z,14.70
2019-06-20T01:00:15.290Z,14.70
2019-06-20T01:02:49.516Z,14.70
2019-06-20T01:05:14.326Z,14.60
2019-06-20T01:07:41.971Z,14.70
2019-06-20T01:10:13.475Z,14.60
2019-06-20T01:12:40.950Z,14.70
2019-06-20T01:15:10.401Z,14.60
2019-06-20T01:17:37.610Z,14.70
2019-06-20T01:20:08.769Z,14.60
2019-06-20T01:22:36.106Z,14.40
2019-06-20T01:25:06.972Z,14.50
2019-06-20T01:27:35.713Z,14.50
2019-06-20T01:30:08.590Z,14.50
2019-06-20T01:32:36.271Z,14.40
2019-06-20T01:35:07.633Z,14.40
2019-06-20T01:37:39.071Z,14.30
2019-06-20T01:40:06.426Z,14.30
2019-06-20T01:42:34.551Z,14.30
2019-06-20T01:45:03.912Z,14.40
2019-06-20T01:47:32.743Z,14.30
2019-06-20T01:50:03.548Z,14.30
2019-06-20T01:52:32.505Z,14.30
2019-06-20T01:55:04.144Z,14.30
2019-06-20T01:57:32.476Z,14.30
2019-06-20T01:59:59.521Z,14.20
2019-06-20T02:02:32.059Z,14.20
2019-06-20T02:04:59.394Z,14.30
2019-06-20T02:07:28.660Z,14.30
2019-06-20T02:09:57.806Z,14.30
2019-06-20T02:12:27.349Z,14.30
2019-06-20T02:14:57.572Z,14.30
2019-06-20T02:17:25.703Z,14.20
2019-06-20T02:19:55.944Z,14.20
2019-06-20T02:22:24.447Z,14.30
2019-06-20T02:24:51.585Z,14.30
2019-06-20T02:27:21.978Z,14.30
2019-06-20T02:29:57.323Z,14.10
2019-06-20T02:32:26.259Z,14.00
2019-06-20T02:34:52.999Z,14.00
2019-06-20T02:37:19.965Z,14.10
2019-06-20T02:39:49.106Z,14.10
2019-06-20T02:42:16.066Z,14.20
2019-06-20T02:44:46.045Z,14.20
2019-06-20T02:47:15.181Z,14.20
2019-06-20T02:49:44.271Z,14.20
2019-06-20T02:52:14.799Z,14.10
2019-06-20T02:54:42.153Z,14.10
2019-06-20T02:57:10.446Z,14.20
2019-06-20T02:59:37.478Z,14.00
2019-06-20T03:02:07.643Z,13.90
2019-06-20T03:04:34.714Z,13.90
2019-06-20T03:07:01.734Z,14.00
2019-06-20T03:09:33.368Z,13.90
2019-06-20T03:12:04.076Z,13.90
2019-06-20T03:14:44.470Z,14.10
2019-06-20T03:17:04.665Z,13.90
2019-06-20T03:19:33.570Z,13.80
2019-06-20T03:22:02.430Z,13.90
2019-06-20T03:24:31.367Z,14.00
2019-06-20T03:26:58.910Z,14.00
2019-06-20T03:29:28.284Z,14.00
2019-06-20T03:31:57.259Z,13.90
2019-06-20T03:34:26.447Z,13.90
2019-06-20T03:36:53.624Z,13.90
2019-06-20T03:39:20.874Z,13.90
2019-06-20T03:41:49.763Z,13.90
2019-06-20T03:44:21.118Z,13.90
2019-06-20T03:46:51.418Z,13.90
2019-06-20T03:49:21.147Z,13.90
2019-06-20T03:51:51.648Z,13.90
2019-06-20T03:54:18.284Z,14.10
2019-06-20T03:56:50.376Z,14.10
2019-06-20T03:59:17.257Z,14.10
2019-06-20T04:01:44.319Z,14.00
2019-06-20T04:04:11.257Z,14.00
2019-06-20T04:06:38.380Z,14.10
2019-06-20T04:09:07.149Z,14.20
2019-06-20T04:11:37.587Z,14.20
2019-06-20T04:14:07.000Z,14.20
2019-06-20T04:16:34.333Z,14.30
2019-06-20T04:19:04.129Z,14.30
2019-06-20T04:21:32.830Z,14.40
2019-06-20T04:24:01.867Z,14.40
2019-06-20T04:26:29.462Z,14.50
2019-06-20T04:28:58.890Z,14.60
2019-06-20T04:31:26.445Z,14.70
2019-06-20T04:33:55.645Z,14.70
2019-06-20T04:36:28.098Z,14.90
2019-06-20T04:39:18.329Z,15.00
2019-06-20T04:41:35.729Z,15.00
2019-06-20T04:44:06.641Z,15.00
2019-06-20T04:46:46.625Z,15.20
2019-06-20T04:49:20.277Z,15.40
2019-06-20T04:51:49.207Z,15.60
2019-06-20T04:54:16.189Z,15.60
2019-06-20T04:56:43.595Z,15.80
2019-06-20T04:59:13.836Z,16.00
2019-06-20T05:01:43.751Z,16.10
2019-06-20T05:04:12.984Z,16.10
2019-06-20T05:06:41.618Z,16.10
2019-06-20T05:09:10.745Z,16.20
2019-06-20T05:11:40.934Z,16.30
2019-06-20T05:14:10.039Z,16.50
2019-06-20T05:16:37.022Z,16.80
2019-06-20T05:19:04.403Z,16.80
2019-06-20T05:21:31.551Z,16.80
2019-06-20T05:24:02.822Z,16.80
2019-06-20T05:26:32.328Z,17.10
2019-06-20T05:28:59.564Z,17.30
2019-06-20T05:31:27.031Z,17.40
2019-06-20T05:33:56.498Z,17.50
2019-06-20T05:36:23.582Z,17.60
2019-06-20T05:38:50.658Z,17.70
2019-06-20T05:41:17.874Z,17.80
2019-06-20T05:43:45.873Z,18.00
2019-06-20T05:46:12.947Z,18.00
2019-06-20T05:48:43.343Z,18.10
2019-06-20T05:51:11.595Z,18.20
2019-06-20T05:53:40.510Z,18.30
2019-06-20T05:56:09.615Z,18.50
2019-06-20T05:58:39.426Z,18.60
2019-06-20T06:01:10.264Z,18.90
2019-06-20T06:03:40.637Z,19.00
2019-06-20T06:06:08.044Z,18.90
2019-06-20T06:08:36.385Z,19.00
2019-06-20T06:11:07.355Z,19.20
2019-06-20T06:13:36.411Z,19.40
2019-06-20T06:16:06.579Z,19.60
2019-06-20T06:18:35.536Z,19.60
2019-06-20T06:21:02.668Z,19.70
2019-06-20T06:23:31.801Z,19.80
2019-06-20T06:25:58.859Z,20.00
2019-06-20T06:28:27.739Z,20.10
2019-06-20T06:30:58.328Z,20.30
2019-06-20T06:33:29.043Z,20.30
2019-06-20T06:36:02.457Z,20.40
2019-06-20T06:38:31.915Z,20.50
2019-06-20T06:40:58.982Z,20.50
2019-06-20T06:43:27.360Z,20.70
2019-06-20T06:45:54.470Z,21.00
2019-06-20T06:48:21.667Z,21.20
2019-06-20T06:50:48.846Z,21.40
2019-06-20T06:53:16.171Z,21.50
2019-06-20T06:55:43.206Z,21.20
2019-06-20T06:58:11.815Z,21.40
2019-06-20T07:00:40.700Z,21.40
2019-06-20T07:03:08.022Z,21.50
2019-06-20T07:05:37.882Z,21.70
2019-06-20T07:08:05.391Z,22.00
2019-06-20T07:10:32.352Z,22.20
2019-06-20T07:13:02.335Z,22.30
2019-06-20T07:15:32.656Z,22.40
2019-06-20T07:18:04.323Z,22.50
2019-06-20T07:20:31.790Z,22.70
2019-06-20T07:22:58.937Z,22.80
2019-06-20T07:25:27.980Z,23.10
2019-06-20T07:28:01.652Z,23.10
2019-06-20T07:30:31.365Z,23.10
2019-06-20T07:33:01.266Z,23.10
2019-06-20T07:35:31.000Z,23.20
2019-06-20T07:38:02.633Z,23.20
2019-06-20T07:40:33.561Z,23.30
2019-06-20T07:43:03.621Z,23.50
2019-06-20T07:45:30.831Z,23.50
2019-06-20T07:47:57.946Z,23.70
2019-06-20T07:50:25.088Z,23.70
2019-06-20T07:53:01.875Z,23.80
2019-06-20T07:55:26.899Z,23.90
2019-06-20T07:57:54.261Z,24.00
2019-06-20T08:00:24.893Z,24.20
2019-06-20T08:02:53.989Z,24.40
2019-06-20T08:05:21.784Z,24.30
2019-06-20T08:07:51.338Z,24.40
2019-06-20T08:10:26.199Z,24.40
2019-06-20T08:13:02.137Z,24.80
2019-06-20T08:15:31.226Z,24.70
2019-06-20T08:17:58.580Z,24.80
2019-06-20T08:20:28.915Z,24.80
2019-06-20T08:22:57.701Z,24.80
2019-06-20T08:25:28.031Z,25.00
2019-06-20T08:27:56.029Z,25.00
2019-06-20T08:30:26.732Z,25.10
2019-06-20T08:32:54.384Z,25.30
2019-06-20T08:35:29.110Z,25.20
2019-06-20T08:37:59.190Z,25.40
2019-06-20T08:40:29.244Z,25.60
2019-06-20T08:43:02.198Z,25.60
2019-06-20T08:45:31.838Z,25.60
2019-06-20T08:48:00.396Z,25.70
2019-06-20T08:50:28.082Z,25.80
2019-06-20T08:52:56.621Z,25.90
2019-06-20T08:55:25.661Z,26.10
2019-06-20T08:57:55.704Z,26.10
2019-06-20T09:00:23.125Z,26.20
2019-06-20T09:02:54.083Z,26.20
2019-06-20T09:05:24.924Z,26.30
2019-06-20T09:07:54.819Z,26.60
2019-06-20T09:10:25.365Z,26.60
2019-06-20T09:12:57.064Z,26.70
2019-06-20T09:15:25.393Z,26.70
2019-06-20T09:17:54.094Z,26.90
2019-06-20T09:20:21.618Z,27.00
2019-06-20T09:22:48.591Z,26.90
2019-06-20T09:25:18.668Z,26.90
2019-06-20T09:27:58.067Z,26.90
2019-06-20T09:30:25.048Z,27.00
2019-06-20T09:32:55.549Z,27.10
2019-06-20T09:35:25.794Z,27.20
2019-06-20T09:37:53.685Z,27.30
2019-06-20T09:40:22.561Z,27.30
2019-06-20T09:42:51.144Z,27.60
2019-06-20T09:45:18.638Z,27.90
2019-06-20T09:47:52.049Z,28.00
2019-06-20T09:50:21.075Z,28.10
2019-06-20T09:52:49.697Z,28.20
2019-06-20T09:55:20.280Z,28.20
2019-06-20T09:57:48.655Z,28.50
2019-06-20T10:00:19.625Z,28.40
2019-06-20T10:02:51.781Z,28.50
2019-06-20T10:05:19.797Z,28.60
2019-06-20T10:07:47.266Z,28.90
2019-06-20T10:10:16.746Z,29.00
2019-06-20T10:12:46.758Z,29.20
2019-06-20T10:15:25.611Z,29.10
2019-06-20T10:17:54.396Z,29.20
2019-06-20T10:20:22.255Z,29.40
2019-06-20T10:22:50.719Z,29.80
2019-06-20T10:25:18.399Z,29.80
2019-06-20T10:27:48.336Z,29.90
2019-06-20T10:30:19.050Z,30.00
2019-06-20T10:32:46.757Z,29.90
2019-06-20T10:35:14.593Z,30.00
2019-06-20T10:37:41.835Z,30.20
2019-06-20T10:40:09.430Z,30.10
2019-06-20T10:42:36.847Z,30.10
2019-06-20T10:45:14.212Z,30.30
2019-06-20T10:47:43.587Z,30.40
2019-06-20T10:50:10.754Z,30.80
2019-06-20T10:52:38.036Z,30.90
2019-06-20T10:55:07.644Z,31.00
2019-06-20T10:57:37.537Z,31.30
2019-06-20T11:00:12.778Z,31.20
2019-06-20T11:02:45.272Z,31.40
2019-06-20T11:05:13.002Z,31.10
2019-06-20T11:07:40.751Z,30.80
2019-06-20T11:10:10.682Z,30.80
2019-06-20T11:12:45.652Z,30.50
2019-06-20T11:15:07.674Z,30.10
2019-06-20T11:17:34.838Z,29.70
2019-06-20T11:20:06.447Z,29.80
2019-06-20T11:22:37.816Z,30.10
2019-06-20T11:25:06.078Z,30.20
2019-06-20T11:27:33.650Z,30.20
2019-06-20T11:30:04.088Z,30.40
2019-06-20T11:32:33.272Z,30.40
2019-06-20T11:35:07.909Z,30.20
2019-06-20T11:37:38.037Z,30.40
2019-06-20T11:40:10.898Z,30.60
2019-06-20T11:42:39.941Z,30.40
2019-06-20T11:45:10.618Z,31.10
2019-06-20T11:47:42.539Z,31.00
2019-06-20T11:50:13.310Z,31.00
2019-06-20T11:52:45.299Z,30.80
2019-06-20T11:55:10.457Z,30.40
2019-06-20T11:57:40.581Z,30.30
2019-06-20T12:00:08.046Z,30.40
2019-06-20T12:02:40.543Z,30.90
2019-06-20T12:05:08.632Z,31.10
2019-06-20T12:07:39.607Z,30.90
2019-06-20T12:10:08.056Z,30.70
2019-06-20T12:12:41.117Z,30.80
2019-06-20T12:15:10.747Z,30.40
2019-06-20T12:17:38.162Z,30.40
2019-06-20T12:20:11.643Z,30.30
2019-06-20T12:22:39.963Z,30.30
2019-06-20T12:25:07.768Z,30.40
2019-06-20T12:27:38.649Z,30.00
2019-06-20T12:30:10.539Z,29.80
2019-06-20T12:32:37.630Z,29.90
2019-06-20T12:35:05.092Z,30.20
2019-06-20T12:37:36.032Z,30.70
2019-06-20T12:40:09.290Z,30.50
2019-06-20T12:42:39.144Z,31.00
2019-06-20T12:45:07.550Z,30.90
2019-06-20T12:47:34.787Z,30.50
2019-06-20T12:50:08.455Z,30.30
2019-06-20T12:52:39.547Z,30.50
2019-06-20T12:55:10.100Z,30.30
2019-06-20T12:57:42.239Z,30.50
2019-06-20T13:00:12.921Z,31.10
2019-06-20T13:02:43.773Z,31.70
2019-06-20T13:05:11.620Z,31.40
2019-06-20T13:07:40.408Z,31.60
2019-06-20T13:10:11.337Z,31.50
2019-06-20T13:12:40.818Z,31.80
2019-06-20T13:15:08.738Z,31.70
2019-06-20T13:17:47.139Z,31.50
2019-06-20T13:20:16.588Z,31.60
2019-06-20T13:22:44.818Z,31.90
2019-06-20T13:25:13.155Z,32.10
2019-06-20T13:27:41.039Z,31.60
2019-06-20T13:30:09.718Z,31.80
2019-06-20T13:32:42.057Z,31.00
2019-06-20T13:35:17.846Z,30.60
2019-06-20T13:37:47.934Z,30.70
2019-06-20T13:40:20.033Z,30.30
2019-06-20T13:42:54.695Z,29.90
2019-06-20T13:45:25.045Z,29.50
2019-06-20T13:48:00.224Z,29.30
2019-06-20T13:50:27.915Z,29.40
2019-06-20T13:52:58.815Z,28.70
2019-06-20T13:55:28.416Z,28.70
2019-06-20T13:58:04.838Z,28.20
2019-06-20T14:00:32.553Z,27.90
2019-06-20T14:03:02.584Z,27.90
2019-06-20T14:05:34.718Z,27.90
2019-06-20T14:08:02.092Z,28.00
2019-06-20T14:10:31.284Z,27.70
2019-06-20T14:13:00.667Z,27.30
2019-06-20T14:15:36.737Z,27.10
2019-06-20T14:18:04.188Z,26.80
2019-06-20T14:20:34.648Z,26.80
2019-06-20T14:23:03.911Z,26.80
2019-06-20T14:25:34.058Z,26.40
2019-06-20T14:28:04.960Z,26.20
2019-06-20T14:30:33.997Z,26.30
2019-06-20T14:33:01.512Z,26.00
2019-06-20T14:35:31.561Z,25.80
2019-06-20T14:38:01.168Z,26.10
2019-06-20T14:40:30.123Z,26.10
2019-06-20T14:42:57.412Z,26.30
2019-06-20T14:45:27.286Z,26.30
2019-06-20T14:47:55.242Z,26.50
2019-06-20T14:50:23.879Z,26.50
2019-06-20T14:52:54.115Z,26.40
2019-06-20T14:55:31.767Z,26.30
2019-06-20T14:58:05.659Z,26.40
2019-06-20T15:00:37.623Z,26.40
2019-06-20T15:03:12.956Z,26.40
2019-06-20T15:05:44.760Z,26.40
2019-06-20T15:08:19.599Z,26.40
2019-06-20T15:10:50.285Z,26.30
2019-06-20T15:13:18.412Z,26.00
2019-06-20T15:15:51.187Z,26.00
2019-06-20T15:18:23.394Z,26.00
2019-06-20T15:20:56.137Z,25.80
2019-06-20T15:23:22.903Z,25.60
2019-06-20T15:25:50.393Z,25.40
2019-06-20T15:28:20.772Z,25.40
2019-06-20T15:30:49.057Z,25.50
2019-06-20T15:33:17.423Z,25.60
2019-06-20T15:35:44.550Z,25.60
2019-06-20T15:38:11.534Z,25.40
2019-06-20T15:40:40.787Z,25.10
2019-06-20T15:43:08.308Z,25.00
2019-06-20T15:45:37.262Z,24.90
2019-06-20T15:48:07.415Z,24.80
2019-06-20T15:50:39.545Z,24.70
2019-06-20T15:53:10.453Z,24.70
2019-06-20T15:55:39.578Z,24.80
2019-06-20T15:58:11.010Z,24.90
2019-06-20T16:00:41.055Z,25.10
2019-06-20T16:03:14.236Z,25.00
2019-06-20T16:05:40.608Z,24.90
2019-06-20T16:08:12.718Z,25.00
2019-06-20T16:10:40.091Z,25.00
2019-06-20T16:13:09.219Z,24.70
2019-06-20T16:15:46.048Z,24.30
2019-06-20T16:18:15.322Z,24.50
2019-06-20T16:20:44.578Z,24.60
2019-06-20T16:23:16.623Z,24.80
2019-06-20T16:25:46.949Z,24.70
2019-06-20T16:28:19.175Z,24.60
2019-06-20T16:30:50.357Z,24.60
2019-06-20T16:33:28.573Z,24.50
2019-06-20T16:35:57.950Z,24.60
2019-06-20T16:38:24.979Z,24.50
2019-06-20T16:40:53.806Z,24.60
2019-06-20T16:43:21.158Z,24.70
2019-06-20T16:45:48.410Z,24.80
2019-06-20T16:48:17.507Z,24.90
2019-06-20T16:50:44.830Z,24.90
2019-06-20T16:53:13.856Z,24.70
2019-06-20T16:55:41.207Z,24.80
2019-06-20T16:58:14.291Z,25.00
2019-06-20T17:00:46.250Z,24.90
2019-06-20T17:03:16.441Z,24.70
2019-06-20T17:05:46.112Z,24.60
2019-06-20T17:08:15.356Z,24.50
2019-06-20T17:10:47.643Z,24.60
2019-06-20T17:13:17.067Z,24.50
2019-06-20T17:15:47.178Z,24.40
2019-06-20T17:18:15.868Z,24.40
2019-06-20T17:20:47.051Z,24.50
2019-06-20T17:23:17.850Z,24.40
2019-06-20T17:25:45.177Z,24.40
2019-06-20T17:28:18.196Z,24.30
2019-06-20T17:30:43.255Z,24.40
2019-06-20T17:33:14.234Z,24.20
2019-06-20T17:35:45.785Z,24.00
2019-06-20T17:38:15.971Z,24.00
2019-06-20T17:40:43.215Z,23.60
2019-06-20T17:43:12.928Z,23.80
2019-06-20T17:45:42.898Z,23.70
2019-06-20T17:48:14.829Z,23.90
2019-06-20T17:50:43.634Z,24.00
2019-06-20T17:53:11.177Z,23.90
2019-06-20T17:55:42.747Z,23.90
2019-06-20T17:58:11.815Z,23.90
2019-06-20T18:00:43.700Z,23.90
2019-06-20T18:03:14.128Z,23.80
2019-06-20T18:05:42.689Z,23.60
2019-06-20T18:08:15.090Z,23.50
2019-06-20T18:10:38.838Z,23.40
2019-06-20T18:13:07.691Z,23.50
2019-06-20T18:15:36.497Z,23.40
2019-06-20T18:18:05.270Z,23.50
2019-06-20T18:20:32.673Z,23.40
2019-06-20T18:22:59.725Z,23.00
2019-06-20T18:25:26.990Z,23.00
2019-06-20T18:27:54.146Z,23.00
2019-06-20T18:30:25.729Z,22.80
2019-06-20T18:32:52.871Z,22.60
2019-06-20T18:35:20.080Z,22.40
2019-06-20T18:37:47.128Z,22.50
2019-06-20T18:40:14.586Z,22.40
2019-06-20T18:42:41.732Z,22.30
2019-06-20T18:45:10.632Z,22.40
2019-06-20T18:47:39.511Z,22.20
2019-06-20T18:50:07.618Z,22.10
2019-06-20T18:52:51.758Z,22.10
2019-06-20T18:55:09.989Z,21.90
2019-06-20T18:57:38.834Z,21.90
2019-06-20T19:00:12.056Z,21.80
2019-06-20T19:02:39.132Z,21.50
2019-06-20T19:05:08.217Z,21.60
2019-06-20T19:07:35.456Z,21.50
2019-06-20T19:10:10.293Z,21.40
2019-06-20T19:12:40.728Z,21.50
2019-06-20T19:15:10.418Z,21.20
2019-06-20T19:17:37.687Z,21.10
2019-06-20T19:20:07.075Z,21.10
2019-06-20T19:22:35.540Z,21.00
2019-06-20T19:25:07.459Z,21.00
2019-06-20T19:27:45.587Z,20.80
2019-06-20T19:30:14.309Z,20.60
2019-06-20T19:32:43.389Z,20.70
2019-06-20T19:35:11.679Z,20.60
2019-06-20T19:37:39.216Z,20.60
2019-06-20T19:40:11.155Z,20.60
2019-06-20T19:42:38.044Z,20.50
2019-06-20T19:45:08.839Z,20.60
2019-06-20T19:47:36.236Z,20.30
2019-06-20T19:50:05.205Z,20.40
2019-06-20T19:52:33.974Z,20.50
2019-06-20T19:55:03.168Z,20.50
2019-06-20T19:57:33.740Z,20.60
2019-06-20T20:00:05.058Z,20.60
2019-06-20T20:02:34.283Z,20.50
2019-06-20T20:05:19.091Z,20.40
2019-06-20T20:07:39.334Z,20.50
2019-06-20T20:10:14.568Z,20.50
2019-06-20T20:12:41.924Z,20.50
2019-06-20T20:15:14.922Z,20.60
2019-06-20T20:17:42.467Z,20.70
2019-06-20T20:20:11.575Z,20.60
2019-06-20T20:22:38.898Z,20.60
2019-06-20T20:25:07.058Z,20.50
2019-06-20T20:27:34.133Z,20.80
2019-06-20T20:30:03.095Z,21.00
2019-06-20T20:32:33.046Z,21.00
2019-06-20T20:35:02.235Z,20.90
2019-06-20T20:37:32.159Z,21.00
2019-06-20T20:39:59.503Z,21.00
2019-06-20T20:42:32.387Z,21.10
2019-06-20T20:45:00.558Z,21.20
2019-06-20T20:47:34.637Z,21.30
2019-06-20T20:50:03.771Z,21.30
2019-06-20T20:52:34.859Z,21.40
2019-06-20T20:55:07.791Z,21.60
2019-06-20T20:57:34.917Z,21.60
2019-06-20T21:00:05.159Z,21.70
2019-06-20T21:02:33.459Z,21.70
2019-06-20T21:05:02.544Z,21.70
2019-06-20T21:07:29.878Z,21.70
2019-06-20T21:09:59.013Z,21.70
2019-06-20T21:12:27.804Z,21.70
2019-06-20T21:14:55.659Z,21.70
2019-06-20T21:17:24.434Z,21.70
2019-06-20T21:19:56.271Z,21.70
2019-06-20T21:22:27.561Z,21.60
2019-06-20T21:24:57.270Z,21.60
2019-06-20T21:27:30.418Z,21.60
2019-06-20T21:29:59.201Z,21.60
2019-06-20T21:32:26.349Z,21.60
2019-06-20T21:34:53.396Z,21.60
2019-06-20T21:37:22.183Z,21.70
2019-06-20T21:39:49.166Z,21.70
2019-06-20T21:42:16.275Z,21.70
2019-06-20T21:44:47.176Z,21.80
2019-06-20T21:47:17.296Z,21.70
2019-06-20T21:49:44.683Z,21.80
2019-06-20T21:52:12.039Z,21.80
2019-06-20T21:54:40.678Z,21.70
2019-06-20T21:57:09.974Z,21.70
2019-06-20T21:59:41.025Z,21.70
2019-06-20T22:02:09.956Z,21.70
2019-06-20T22:04:53.671Z,21.60
2019-06-20T22:07:13.565Z,21.60
2019-06-20T22:09:44.971Z,21.50
2019-06-20T22:12:13.779Z,21.40
2019-06-20T22:15:04.077Z,21.40
2019-06-20T22:17:36.544Z,21.40
2019-06-20T22:20:13.237Z,21.30
2019-06-20T22:22:43.535Z,21.20
2019-06-20T22:25:15.630Z,21.10
2019-06-20T22:27:46.359Z,20.90
2019-06-20T22:30:17.576Z,20.80
2019-06-20T22:32:44.736Z,20.70
2019-06-20T22:35:12.488Z,20.80
2019-06-20T22:37:46.326Z,20.70
2019-06-20T22:40:19.176Z,20.70
2019-06-20T22:42:46.527Z,20.60
2019-06-20T22:45:15.608Z,20.60
2019-06-20T22:47:43.939Z,20.50
2019-06-20T22:50:18.268Z,20.50
2019-06-20T22:52:48.050Z,20.50
2019-06-20T22:55:15.607Z,20.40
2019-06-20T22:57:45.863Z,20.40
2019-06-20T23:00:17.373Z,20.30
2019-06-20T23:02:46.468Z,20.00
2019-06-20T23:05:17.097Z,19.70
2019-06-20T23:07:46.559Z,19.60
2019-06-20T23:10:14.456Z,19.70
2019-06-20T23:12:44.458Z,19.70
2019-06-20T23:15:16.334Z,19.80
2019-06-20T23:17:43.421Z,19.70
2019-06-20T23:20:13.882Z,19.70
2019-06-20T23:22:40.136Z,19.70
2019-06-20T23:25:09.026Z,19.60
2019-06-20T23:27:36.496Z,19.60
2019-06-20T23:30:10.015Z,19.70
2019-06-20T23:32:49.430Z,19.60
2019-06-20T23:35:20.706Z,19.20
2019-06-20T23:37:50.567Z,19.10
2019-06-20T23:40:20.706Z,19.10
2019-06-20T23:42:49.409Z,19.00
2019-06-20T23:45:17.621Z,18.80
2019-06-20T23:47:46.861Z,18.70
2019-06-20T23:50:19.861Z,18.50
2019-06-20T23:52:58.554Z,18.40
2019-06-20T23:55:27.534Z,18.40
2019-06-20T23:57:59.018Z,18.40
